Date,TemperatureHighF,TemperatureAvgF,TemperatureLowF,DewpointHighF,DewpointAvgF,DewpointLowF,HumidityHigh,HumidityAvg,HumidityLow,PressureMaxIn,PressureMinIn,WindSpeedMaxMPH,WindSpeedAvgMPH,GustSpeedMaxMPH,PrecipitationSumIn
2013-1-1,33,24,19,21,16,12,90,74,50,30.32,30.16,17,6,0,0.01
2013-1-2,27,23,21,17,7,-1,86,51,34,30.45,30.29,22,9,0,0.00
2013-1-3,43,26,15,15,3,-8,51,38,12,30.44,30.27,5,1,0,0.00
2013-1-4,47,33,25,11,8,1,52,36,16,30.27,30.11,12,3,0,0.00
2013-1-5,35,28,19,18,13,0,71,52,38,30.29,30.15,12,4,0,0.00
2013-1-6,50,35,22,19,9,-11,59,36,8,30.21,29.90,6,1,0,0.00
2013-1-7,41,30,23,19,15,11,64,53,33,29.97,29.73,6,1,0,0.00
2013-1-8,41,35,22,19,14,10,68,43,29,30.07,29.75,14,4,0,0.00
2013-1-9,57,43,23,28,18,11,66,37,18,30.07,29.69,11,2,0,0.00
2013-1-10,51,35,16,22,16,10,91,50,28,29.69,29.42,10,2,0,0.00
2013-1-11,15,4,-1,12,0,-5,87,83,80,30.27,29.54,26,11,0,0.00
2013-1-12,7,4,-1,3,0,-5,85,82,80,30.43,30.27,13,3,0,0.00
2013-1-13,9,6,5,2,1,0,81,78,70,30.43,30.40,11,6,0,0.00
2013-1-15,39,34,26,30,26,21,86,73,48,30.27,30.13,19,7,0,0.01
2013-1-16,44,38,26,22,16,11,76,43,26,30.32,30.09,16,5,0,0.00
2013-1-17,48,34,24,23,15,4,69,48,16,30.39,30.09,10,2,0,0.00
2013-1-18,53,49,43,13,5,2,26,17,12,30.09,29.82,19,7,0,0.00
2013-1-19,44,37,24,20,10,0,72,37,16,30.12,29.88,15,4,0,0.00
2013-1-20,43,22,15,17,13,1,91,74,17,30.42,30.07,21,5,0,0.00
2013-1-21,40,26,14,19,14,9,91,65,33,30.38,30.13,8,1,0,0.00
2013-1-22,44,34,26,15,8,0,49,35,16,30.17,30.09,8,2,0,0.00
2013-1-23,50,34,28,20,13,1,61,42,13,30.19,29.98,7,1,0,0.00
2013-1-24,54,44,26,23,16,-1,77,37,11,30.04,29.84,12,3,0,0.00
2013-1-25,46,34,25,22,18,14,78,53,31,30.12,29.96,5,1,0,0.00
2013-1-26,50,40,32,25,22,19,63,50,34,29.96,29.66,8,2,0,0.00
2013-1-27,39,31,25,28,25,21,91,78,52,29.82,29.61,22,3,0,0.01
2013-1-28,25,21,13,23,17,10,90,84,64,29.91,29.81,10,2,0,0.00
2013-1-29,21,12,-3,16,6,-7,87,78,58,30.26,29.86,21,5,0,0.00
2013-1-30,27,19,-1,25,16,-4,93,88,72,30.20,30.04,16,5,0,0.01
2013-1-31,27,18,2,26,16,-1,94,91,85,30.32,30.12,14,4,0,0.00
2013-2-1,32,29,25,30,27,22,95,91,76,30.29,30.14,15,4,0,0.00
2013-2-2,36,29,19,23,19,15,86,67,48,30.39,30.28,18,4,0,0.00
2013-2-3,51,34,22,19,15,7,81,51,16,30.27,29.96,11,3,0,0.00
2013-2-4,43,32,22,22,18,15,73,56,34,29.97,29.86,11,2,0,0.00
2013-2-5,39,33,25,26,22,20,80,64,54,29.98,29.80,11,2,0,0.00
2013-2-6,37,33,25,25,19,12,81,56,41,30.12,29.80,13,4,0,0.00
2013-2-7,37,30,21,21,13,5,62,50,34,30.15,29.95,5,1,0,0.00
2013-2-8,40,31,24,17,10,4,68,44,25,29.99,29.88,6,1,0,0.00
2013-2-9,33,27,23,23,19,14,89,72,54,29.92,29.80,10,2,0,0.01
2013-2-10,23,17,11,20,14,8,92,89,87,30.25,29.88,26,10,0,0.00
2013-2-11,25,14,2,18,10,-1,90,83,72,30.28,30.18,10,1,0,0.00
2013-2-12,36,26,17,21,16,12,81,66,44,30.23,30.01,11,2,0,0.00
2013-2-13,42,32,22,27,20,15,93,65,34,30.06,29.88,22,5,0,0.01
2013-2-14,26,20,18,24,13,6,92,74,53,30.46,30.07,18,5,0,0.02
2013-2-15,39,25,20,24,19,16,90,77,52,30.52,30.25,20,5,0,0.01
2013-2-16,46,37,27,25,21,16,78,53,36,30.25,29.76,15,3,0,0.00
2013-2-17,38,28,23,26,20,12,93,75,34,29.98,29.62,19,7,0,0.01
2013-2-19,29,23,20,27,21,17,93,91,91,29.96,29.91,2,0,0,0.00
2013-2-20,26,20,14,23,17,12,91,89,84,29.99,29.86,8,1,0,0.00
2013-2-21,24,17,7,19,14,4,91,87,81,30.10,29.99,11,2,0,0.00
2013-2-22,31,21,11,15,11,7,85,66,42,30.11,29.85,11,2,0,0.00
2013-2-23,35,28,19,27,20,10,92,73,44,29.98,29.73,16,4,0,0.01
2013-2-24,26,20,12,21,16,8,92,83,62,30.24,29.99,17,6,0,0.01
2013-2-25,38,27,15,22,13,6,84,59,27,30.20,29.90,11,3,0,0.00
2013-2-26,29,26,20,23,17,13,89,70,52,30.28,29.94,20,7,0,0.01
2013-2-27,31,25,15,14,10,6,82,55,34,30.36,30.29,6,2,0,0.00
2013-2-28,34,30,20,17,13,9,63,50,38,30.34,30.27,12,4,0,0.00
2013-3-1,47,36,21,34,22,11,84,58,40,30.38,30.24,12,4,0,0.00
2013-3-2,53,46,37,26,23,20,62,42,27,30.25,29.80,12,3,0,0.00
2013-3-3,52,36,22,29,24,16,92,64,31,29.80,29.48,27,5,0,0.01
2013-3-4,24,16,10,16,10,4,87,77,63,30.51,29.78,33,9,0,0.00
2013-3-5,30,17,4,16,6,0,86,65,43,30.53,30.23,7,2,0,0.00
2013-3-6,46,33,18,26,17,7,70,53,23,30.23,29.76,5,1,0,0.00
2013-3-7,43,35,28,24,19,9,74,55,26,30.08,29.81,7,1,0,0.00
2013-3-8,35,30,25,26,22,19,80,72,63,30.05,29.89,10,2,0,0.00
2013-3-9,33,30,26,26,21,16,85,69,60,30.25,29.89,19,8,0,0.00
2013-3-10,43,35,27,22,16,10,65,46,29,30.28,29.99,13,4,0,0.00
2013-3-11,38,29,20,28,23,14,93,79,37,30.30,29.97,16,6,0,0.02
2013-3-12,36,25,11,26,17,8,86,72,48,30.41,30.22,9,3,0,0.00
2013-3-13,57,48,33,29,25,22,77,42,30,30.21,30.06,11,3,0,0.00
2013-3-14,57,46,37,30,27,24,64,48,30,30.12,29.93,7,1,0,0.00
2013-3-15,56,48,35,28,24,17,71,42,22,29.95,29.81,13,4,0,0.00
2013-3-16,43,36,30,32,27,22,91,73,45,29.95,29.72,9,1,0,0.00
2013-3-17,45,28,20,24,19,6,91,70,38,29.88,29.37,9,3,0,0.01
2013-3-18,32,23,12,19,13,-1,90,68,24,30.10,29.89,12,3,0,0.00
2013-3-19,25,21,12,20,16,9,88,80,67,30.45,30.08,16,3,0,0.01
2013-3-20,47,30,12,26,17,9,89,62,26,30.42,29.73,4,1,0,0.00
2013-3-21,44,29,23,28,24,18,93,81,48,29.92,29.58,26,6,0,0.01
2013-3-22,27,21,14,18,14,10,89,73,55,30.22,29.91,14,5,0,0.00
2013-3-23,18,14,10,10,8,4,86,74,61,30.45,30.22,12,4,0,0.00
2013-3-24,16,13,5,11,6,-1,85,73,50,30.51,30.37,17,6,0,0.00
2013-3-25,33,20,4,15,7,1,86,60,34,30.51,30.24,8,2,0,0.00
2013-3-26,43,30,19,18,7,-2,59,39,17,30.23,30.06,6,1,0,0.00
2013-3-27,49,37,25,26,17,10,64,47,29,30.11,30.01,9,2,0,0.00
2013-3-28,52,41,31,27,22,18,66,48,31,30.09,30.03,4,1,0,0.00
2013-3-29,51,44,36,35,27,20,91,54,32,30.11,29.99,13,4,0,0.01
2013-3-30,46,39,31,33,28,21,90,66,38,30.15,30.05,16,4,0,0.00
2013-3-31,51,40,28,27,23,17,76,52,32,30.15,29.99,20,4,0,0.00
2013-4-1,48,38,29,25,20,8,77,53,20,30.14,30.09,9,1,0,0.00
2013-4-2,56,42,28,25,20,17,68,44,23,30.12,29.94,10,2,0,0.00
2013-4-3,55,46,35,29,24,17,74,43,28,30.08,29.91,14,3,0,0.00
2013-4-4,56,45,32,34,30,25,79,56,37,30.05,29.81,9,1,0,0.00
2013-4-5,56,47,41,43,32,26,85,57,41,29.80,29.57,6,1,0,0.02
2013-4-6,52,46,36,36,30,25,75,55,42,29.81,29.72,14,3,0,0.00
2013-4-7,47,40,33,35,32,29,85,74,60,29.74,29.59,10,2,0,0.00
2013-4-11,42,37,33,33,30,28,86,75,59,29.91,29.88,22,6,0,0.01
2013-4-12,35,31,29,29,28,27,94,88,77,29.95,29.88,16,5,0,0.00
2013-4-14,20,19,17,17,16,15,91,90,88,29.95,29.93,11,7,0,0.01
2013-4-15,21,17,13,15,13,10,91,82,73,30.31,29.94,11,4,0,0.00
2013-4-16,23,18,14,18,14,9,85,82,74,30.41,30.24,8,2,0,0.01
2013-4-17,22,18,15,16,14,12,89,83,73,30.45,30.36,12,4,0,0.00
2013-4-18,37,28,13,23,14,6,81,57,40,30.42,30.17,17,5,0,0.00
2013-4-19,44,38,31,29,23,19,77,55,43,30.18,29.81,16,3,0,0.00
2013-4-20,49,41,31,35,30,25,92,66,45,29.93,29.81,11,3,0,0.00
2013-4-21,42,32,23,32,28,21,92,85,57,30.18,29.93,14,3,0,0.01
2013-4-22,23,19,10,21,14,6,92,82,68,30.57,30.18,14,2,0,0.00
2013-4-23,32,22,7,18,10,3,86,62,42,30.55,30.31,10,3,0,0.00
2013-4-24,42,29,24,30,23,16,93,79,40,30.31,30.06,12,4,0,0.01
2013-4-25,56,48,38,26,17,9,54,31,15,30.06,29.82,13,4,0,0.00
2013-4-26,62,48,36,32,25,20,60,43,26,30.11,29.93,7,1,0,0.00
2013-4-27,68,55,40,31,24,11,55,34,12,30.06,29.73,10,2,0,0.00
2013-4-28,60,49,39,41,32,22,89,56,23,29.84,29.70,12,4,0,0.01
2013-4-29,65,48,32,40,32,23,93,59,20,29.67,29.40,19,5,0,0.01
2013-4-30,33,30,28,29,24,21,87,79,70,29.79,29.65,6,1,0,0.00
2013-5-1,36,31,23,23,19,14,89,63,39,30.70,30.44,5,1,0,0.00
2013-5-2,50,37,23,27,20,15,80,51,30,30.72,30.36,7,2,0,0.00
2013-5-3,59,47,33,32,22,15,67,41,19,30.36,30.07,6,2,0,0.00
2013-5-4,48,43,38,41,36,32,92,78,63,30.22,30.09,6,1,0,0.01
2013-5-5,56,46,32,35,28,24,89,55,32,30.21,30.02,8,2,0,0.00
2013-5-6,64,52,38,33,29,25,67,44,27,30.02,29.83,9,2,0,0.00
2013-5-7,69,58,43,36,29,25,54,35,21,29.83,29.70,9,2,0,0.00
2013-5-8,61,53,45,38,34,29,64,48,31,30.03,29.80,13,3,0,0.00
2013-5-9,66,55,41,42,34,28,72,48,27,30.03,29.96,8,2,0,0.00
2013-5-10,66,52,41,46,35,29,77,53,27,30.29,30.01,10,2,0,0.01
2013-5-11,63,50,34,40,33,27,81,54,33,30.30,30.07,9,1,0,0.00
2013-5-12,75,66,50,42,36,31,56,34,24,30.10,29.78,10,3,0,0.00
2013-5-13,82,72,58,44,36,27,45,28,14,29.80,29.51,8,3,0,0.00
2013-5-14,72,62,53,48,43,35,69,51,39,29.75,29.52,15,2,0,0.00
2013-5-15,67,57,43,45,38,32,72,51,34,29.82,29.68,8,2,0,0.00
2013-5-16,65,55,47,52,44,38,91,69,46,29.72,29.61,13,2,0,0.01
2013-5-17,57,50,45,51,47,43,96,89,76,29.78,29.64,12,1,0,0.05
2013-5-18,56,48,40,50,45,39,95,89,77,29.83,29.76,11,2,0,0.01
2013-5-19,47,46,44,45,44,42,96,92,86,29.90,29.76,18,6,0,0.02
2013-5-20,50,44,38,43,39,30,95,84,50,30.08,29.87,22,9,0,0.02
2013-5-21,56,48,40,39,36,29,91,64,38,30.07,29.89,16,4,0,0.00
2013-5-22,57,47,36,46,41,33,94,80,58,29.91,29.85,11,3,0,0.00
2013-5-23,62,52,43,48,44,39,90,75,59,29.88,29.62,15,5,0,0.00
2013-5-24,64,54,45,48,45,42,93,74,48,29.85,29.63,10,1,0,0.00
2013-5-25,75,60,42,50,40,27,85,51,19,29.83,29.62,20,3,0,0.00
2013-5-26,68,54,46,55,45,34,96,73,43,29.77,29.64,12,2,0,0.16
2013-5-27,62,51,42,51,44,33,95,76,39,29.77,29.63,14,0,0,0.09
2013-5-28,65,51,40,47,41,36,92,71,40,29.70,29.54,1,0,0,0.07
2013-5-29,55,48,44,48,45,43,96,92,77,29.62,29.47,6,0,0,0.21
2013-5-30,46,44,42,44,41,38,94,91,84,29.72,29.48,17,4,0,0.22
2013-5-31,48,43,40,40,38,37,93,83,70,30.14,29.68,25,6,0,0.22
2013-6-1,56,49,42,43,39,33,92,70,52,30.21,30.05,19,0,0,0.12
2013-6-2,68,56,40,51,43,36,87,64,40,30.05,29.48,1,0,0,0.00
2013-6-3,60,52,40,50,40,26,93,68,27,29.89,29.44,14,1,0,0.00
2013-6-4,43,40,37,38,36,33,89,83,76,30.28,29.89,4,0,0,0.02
2013-6-5,56,46,32,43,38,31,96,75,56,30.27,30.05,1,0,0,0.00
2013-6-6,68,57,42,48,41,36,87,59,34,30.05,29.93,7,0,0,0.00
2013-6-7,74,61,48,53,46,40,83,60,34,29.93,29.52,6,0,0,0.00
2013-6-8,65,58,50,50,43,40,89,59,44,29.82,29.56,13,1,0,0.05
2013-6-9,77,62,45,51,42,37,83,52,27,29.84,29.55,2,0,0,0.00
2013-6-10,73,66,56,55,45,26,74,48,18,29.67,29.55,13,0,0,0.00
2013-6-11,71,61,51,60,52,46,90,74,53,29.85,29.54,18,1,0,0.10
2013-6-12,66,57,50,57,50,44,93,77,53,29.92,29.77,6,0,0,0.01
2013-6-13,77,61,50,63,54,48,95,79,55,29.86,29.58,8,0,0,0.00
2013-6-14,65,56,43,55,43,36,86,63,50,29.97,29.66,8,0,0,0.00
2013-6-15,70,56,39,46,37,27,77,52,29,30.01,29.87,2,0,0,0.00
2013-6-16,70,57,46,49,41,34,72,57,28,29.99,29.89,0,0,0,0.00
2013-6-17,70,61,48,55,49,42,83,65,48,29.97,29.88,1,0,0,0.00
2013-6-18,75,63,53,53,45,39,79,53,34,29.88,29.61,9,0,0,0.01
2013-6-19,79,64,51,54,40,16,68,46,11,29.61,29.30,11,0,0,0.00
2013-6-20,76,61,47,43,39,21,69,46,13,29.80,29.38,12,0,0,0.00
2013-6-21,63,57,49,49,44,37,83,61,50,29.87,29.76,1,0,0,0.00
2013-6-22,56,52,44,50,47,42,93,83,65,29.91,29.73,11,0,0,0.08
2013-6-23,68,56,40,50,43,38,93,66,44,29.91,29.65,2,0,0,0.00
2013-6-24,78,66,50,54,45,37,82,49,24,29.65,29.42,1,0,0,0.00
2013-6-25,73,64,57,53,47,40,72,55,38,29.70,29.39,16,0,0,0.00
2013-6-26,74,66,57,55,48,38,80,54,41,29.90,29.69,1,0,0,0.00
2013-6-27,80,68,52,56,51,45,84,59,29,30.03,29.91,0,0,0,0.00
2013-6-28,80,68,54,55,52,48,83,58,35,30.04,29.98,2,0,0,0.00
2013-6-29,79,68,54,58,52,47,79,58,39,30.00,29.88,0,0,0,0.00
2013-6-30,80,68,58,55,52,50,81,59,37,29.95,29.87,2,0,0,0.00
2013-7-2,64,62,61,47,46,45,58,56,54,29.82,29.80,0,0,0,0.00
2013-7-3,83,72,55,56,48,34,65,43,27,29.80,29.66,8,0,0,0.00
2013-7-4,80,69,58,61,54,42,94,61,38,29.75,29.57,0,0,0,0.01
2013-7-5,72,63,54,61,56,52,94,78,50,29.72,29.54,11,0,0,0.02
2013-7-6,74,64,54,60,53,47,84,68,50,29.79,29.62,1,0,0,0.00
2013-7-7,79,66,53,60,53,48,85,65,42,29.83,29.66,17,0,0,0.00
2013-7-8,83,69,57,58,52,47,75,56,31,29.81,29.69,1,0,0,0.00
2013-7-9,74,67,59,55,52,49,77,59,43,29.95,29.91,4,1,0,0.00
2013-7-10,83,68,53,58,51,46,82,59,30,29.93,29.83,4,1,0,0.00
2013-7-11,78,76,74,47,45,44,36,34,33,29.54,29.48,8,5,0,0.00
2013-7-12,74,67,57,55,51,45,86,58,39,29.71,29.52,8,1,0,0.01
2013-7-13,86,73,57,53,42,34,69,37,16,29.77,29.71,13,2,0,0.00
2013-7-14,75,69,53,55,51,47,83,54,38,29.98,29.87,9,2,0,0.00
2013-7-15,84,72,55,62,52,43,74,52,31,29.88,29.68,12,1,0,0.00
2013-7-16,73,64,56,54,52,44,85,66,42,30.02,29.71,20,4,0,0.00
2013-7-17,73,61,53,59,53,49,91,76,54,30.01,29.83,7,1,0,0.00
2013-7-18,81,73,64,59,52,48,66,49,36,29.87,29.78,13,3,0,0.00
2013-7-19,86,73,58,52,48,44,73,45,24,29.88,29.70,7,2,0,0.00
2013-7-20,81,71,58,50,47,44,63,44,29,29.72,29.61,5,1,0,0.00
2013-7-21,86,73,58,54,44,35,64,37,21,29.71,29.58,7,2,0,0.00
2013-7-22,90,72,54,51,44,38,64,39,20,29.71,29.59,9,2,0,0.00
2013-7-23,82,72,61,51,43,37,59,37,21,29.90,29.70,8,2,0,0.00
2013-7-24,82,71,55,54,47,44,69,44,27,29.91,29.70,7,1,0,0.00
2013-7-25,75,66,57,55,49,41,75,57,36,30.02,29.68,11,2,0,0.00
2013-7-26,76,64,48,54,50,45,92,64,39,30.05,29.92,4,1,0,0.00
2013-7-27,77,66,54,58,49,38,90,57,29,29.91,29.69,6,2,0,0.04
2013-7-28,75,65,58,56,46,39,72,51,34,29.71,29.60,10,1,0,0.02
2013-7-29,67,60,53,53,50,44,80,70,57,29.93,29.68,14,2,0,0.00
2013-7-30,72,62,53,54,50,45,90,67,45,30.09,29.87,13,3,0,0.08
2013-7-31,79,65,49,52,48,45,92,59,31,30.11,29.93,5,1,0,0.00
2013-8-1,81,68,59,57,49,43,77,52,30,29.95,29.59,9,2,0,0.06
2013-8-2,74,64,53,57,52,45,89,67,37,29.86,29.62,10,2,0,0.00
2013-8-3,77,66,52,59,55,48,90,70,48,29.93,29.75,12,2,0,0.00
2013-8-4,78,68,55,60,57,52,92,70,49,29.85,29.76,15,2,0,0.00
2013-8-5,84,70,57,57,50,43,88,53,28,29.84,29.63,9,2,0,0.00
2013-8-6,73,65,53,49,45,42,74,51,35,29.89,29.68,8,2,0,0.01
2013-8-7,80,67,52,50,46,42,70,48,30,29.90,29.72,9,1,0,0.00
2013-8-8,76,65,53,53,48,41,81,57,37,29.87,29.79,7,1,0,0.00
2013-8-9,72,62,56,54,51,46,87,68,43,29.97,29.86,10,1,0,0.03
2013-8-10,77,65,51,53,48,39,86,56,36,29.95,29.87,8,1,0,0.00
2013-8-11,80,69,55,48,42,37,56,38,22,29.92,29.81,10,2,0,0.00
2013-8-12,82,69,55,50,40,34,56,37,21,29.88,29.83,4,1,0,0.00
2013-8-13,77,66,53,53,45,34,77,50,29,29.95,29.87,18,3,0,0.00
2013-8-14,78,63,53,57,45,38,79,54,28,29.93,29.83,5,1,0,0.06
2013-8-15,82,68,53,51,43,39,68,43,22,29.93,29.85,4,1,0,0.00
2013-8-16,90,76,61,46,37,27,45,27,12,29.86,29.70,8,2,0,0.00
2013-8-17,88,76,65,47,36,23,46,25,13,29.73,29.66,13,3,0,0.00
2013-8-18,81,69,61,52,46,39,61,45,23,29.81,29.67,16,3,0,0.00
2013-8-19,86,73,61,50,44,41,55,38,22,29.81,29.67,9,1,0,0.00
2013-8-20,84,73,62,44,39,34,45,30,19,29.73,29.66,17,2,0,0.00
2013-8-21,76,70,62,46,42,39,54,38,29,29.89,29.68,13,4,0,0.00
2013-8-22,80,70,61,58,52,45,74,55,38,29.91,29.72,10,1,0,0.01
2013-8-23,84,70,60,65,52,46,85,53,30,29.72,29.54,8,1,0,0.00
2013-8-24,76,68,59,60,52,48,85,59,40,29.77,29.61,10,1,0,0.00
2013-8-25,83,71,59,55,47,41,69,45,24,29.84,29.73,4,1,0,0.00
2013-8-26,85,74,63,60,46,41,62,38,22,29.75,29.70,9,2,0,0.00
2013-8-27,83,74,64,55,47,44,72,40,27,29.79,29.71,6,1,0,0.00
2013-8-28,87,74,60,56,51,46,68,46,26,29.76,29.66,14,2,0,0.00
2013-8-29,85,74,67,51,47,44,55,39,25,29.88,29.75,17,3,0,0.00
2013-8-30,89,75,64,52,44,37,48,34,17,29.83,29.69,16,2,0,0.00
2013-8-31,74,69,62,47,42,38,52,38,29,29.88,29.69,15,4,0,0.00
2013-9-1,83,73,52,45,40,35,62,32,19,29.95,29.82,6,1,0,0.00
2013-9-2,88,73,61,58,43,32,79,36,18,29.83,29.65,9,2,0,0.00
2013-9-3,82,70,60,57,52,48,76,54,36,29.83,29.68,6,1,0,0.00
2013-9-4,87,75,64,54,51,48,61,44,31,29.88,29.79,7,2,0,0.00
2013-9-5,88,74,63,55,50,45,65,45,28,29.83,29.68,5,1,0,0.00
2013-9-6,83,73,64,60,53,46,78,50,31,29.80,29.71,12,2,0,0.00
2013-9-7,83,71,59,57,53,50,81,56,34,29.82,29.72,6,1,0,0.00
2013-9-8,70,64,56,60,57,51,92,78,65,29.76,29.67,5,1,0,0.00
2013-9-9,66,58,49,48,45,43,85,64,45,29.92,29.75,12,2,0,0.00
2013-9-10,70,60,50,50,45,43,79,61,39,30.01,29.91,5,1,0,0.00
2013-9-11,75,63,54,46,42,33,67,47,24,30.12,30.00,7,2,0,0.00
2013-9-12,72,62,51,54,46,42,75,58,37,30.12,29.95,11,2,0,0.00
2013-9-13,72,61,53,58,52,46,94,75,51,29.95,29.65,7,1,0,0.00
2013-9-14,63,56,51,56,53,48,96,88,68,29.97,29.67,9,3,0,0.00
2013-9-15,62,56,47,55,52,45,97,88,72,30.07,29.96,10,1,0,0.00
2013-9-16,74,60,46,55,49,42,96,70,41,29.96,29.72,4,0,0,0.00
2013-9-17,82,65,56,53,46,36,80,52,21,29.73,29.46,14,2,0,0.00
2013-9-18,69,56,43,52,43,30,88,63,25,29.82,29.42,15,3,0,0.00
2013-9-19,52,44,39,39,37,35,89,75,60,30.15,29.83,10,3,0,0.00
2013-9-20,67,51,37,42,35,26,88,56,29,30.14,29.78,6,1,0,0.00
2013-9-21,81,65,48,40,28,21,43,26,13,29.78,29.42,7,2,0,0.00
2013-9-22,69,60,51,47,38,27,70,46,26,29.42,29.33,11,1,0,0.00
2013-9-23,61,52,43,44,38,31,87,61,34,29.86,29.42,14,4,0,0.00
2013-9-24,71,56,41,38,32,27,73,45,20,29.92,29.56,8,1,0,0.00
2013-9-25,56,48,40,43,38,32,94,69,46,29.60,29.43,11,2,0,0.00
2013-9-26,42,38,32,40,36,31,95,92,85,30.00,29.59,9,2,0,0.00
2013-9-27,36,33,31,34,32,30,96,94,88,30.03,29.96,3,0,0,0.00
2013-9-28,58,45,30,37,32,28,93,62,35,30.02,29.86,9,2,0,0.00
2013-9-29,64,55,42,42,35,27,71,48,29,29.86,29.54,13,2,0,0.00
2013-9-30,72,50,38,42,37,34,91,64,27,29.80,29.45,18,2,0,0.00
2013-10-1,62,47,35,43,37,30,92,70,45,29.90,29.80,7,1,0,0.00
2013-10-2,50,44,38,35,32,28,72,62,54,29.98,29.84,17,5,0,0.00
2013-10-3,38,34,30,37,33,28,96,95,91,30.21,29.85,13,4,0,0.00
2013-10-4,29,27,25,28,25,24,95,93,84,30.47,30.20,24,10,0,0.00
2013-10-5,48,37,29,31,24,20,83,61,41,30.44,30.23,14,7,0,0.00
2013-10-6,60,48,37,36,30,24,79,53,32,30.23,30.02,14,2,0,0.00
2013-10-7,71,51,40,42,29,17,58,45,13,30.02,29.64,8,1,0,0.00
2013-10-8,54,49,39,33,28,21,70,46,34,29.70,29.62,7,1,0,0.00
2013-10-13,39,38,36,36,35,34,93,91,90,30.10,30.04,8,2,0,0.00
2013-10-14,36,30,28,34,28,26,95,94,90,30.45,30.03,20,10,0,0.00
2013-10-15,32,29,22,29,26,18,94,88,78,30.47,30.24,9,3,0,0.00
2013-10-16,47,34,21,31,23,17,93,68,33,30.25,30.12,14,3,0,0.00
2013-10-17,32,30,27,29,27,26,94,90,82,30.20,30.15,15,4,0,0.00
2013-10-18,44,34,27,28,26,21,94,74,40,30.27,30.05,16,6,0,0.00
2013-10-19,53,47,41,33,25,20,69,41,32,30.05,29.82,13,5,0,0.00
2013-10-20,41,37,34,35,31,28,91,81,69,30.10,29.86,16,6,0,0.00
2013-10-21,51,46,37,34,32,29,82,56,46,30.09,30.01,16,7,0,0.00
2013-10-22,55,47,38,38,33,29,80,60,47,30.05,29.98,15,4,0,0.00
2013-10-23,52,44,38,38,34,29,88,67,54,30.21,30.04,9,2,0,0.00
2013-10-24,52,40,31,39,34,29,92,78,55,30.25,30.16,3,0,0,0.00
2013-10-25,62,48,36,34,29,24,82,52,24,30.16,30.11,24,3,0,0.00
2013-10-26,61,50,35,35,28,19,73,43,27,30.21,29.97,7,1,0,0.00
2013-10-27,58,47,34,33,26,18,82,45,29,29.97,29.74,5,1,0,0.00
2013-10-28,34,27,23,30,26,21,94,93,83,30.17,29.94,10,2,0,0.00
2013-10-29,26,24,22,25,22,20,94,93,91,30.16,30.03,3,0,0,0.00
2013-10-30,42,33,24,34,29,22,96,86,65,29.97,29.87,9,1,0,0.00
2013-10-31,44,35,27,35,28,24,91,75,56,29.94,29.78,14,3,0,0.00
2013-11-1,42,36,29,30,24,21,89,63,44,30.18,29.95,14,5,0,0.00
2013-11-2,53,39,29,34,24,17,78,57,37,30.17,29.59,4,1,0,0.00
2013-11-3,47,33,25,31,24,17,91,70,30,29.92,29.56,17,5,17,0.00
2013-11-4,31,24,21,24,12,-100,92,75,56,30.18,29.92,5,-70,6,0.01
2013-11-5,31,22,13,20,14,10,88,74,52,30.27,30.18,8,1,9,0.07
2013-11-6,42,33,22,26,22,16,81,63,39,30.38,30.20,12,4,17,0.01
2013-11-7,46,36,26,30,25,20,78,65,40,30.38,29.74,9,1,12,0.00
2013-11-8,49,39,29,31,24,17,92,57,33,30.02,29.63,22,4,26,0.01
2013-11-9,39,33,28,25,23,19,84,67,47,30.24,30.03,6,1,7,0.00
2013-11-10,56,40,28,37,29,24,89,66,34,30.21,30.09,6,1,10,0.00
2013-11-11,31,28,24,30,26,23,95,94,90,30.64,30.18,8,0,9,0.00
2013-11-12,58,44,28,35,24,9,95,50,18,30.63,30.20,7,2,9,0.01
2013-11-13,61,49,38,33,27,21,73,44,23,30.19,29.91,15,4,24,0.00
2013-11-14,43,35,29,27,22,18,78,60,48,30.00,29.73,8,1,18,0.00
2013-11-15,45,33,26,25,20,15,80,60,34,29.73,29.40,7,1,8,0.00
2013-11-16,42,32,25,26,21,13,92,64,31,29.49,29.26,16,2,23,0.00
2013-11-17,36,29,23,24,13,5,92,53,28,30.09,29.49,17,4,30,0.00
2013-11-18,54,37,23,25,18,11,67,48,21,30.08,29.83,6,1,8,0.00
2013-11-19,54,45,37,32,23,14,61,43,23,29.81,29.55,9,1,13,0.00
2013-11-20,46,21,5,24,14,1,89,74,38,30.40,29.61,29,6,35,0.00
2013-11-21,16,10,5,9,5,1,87,79,67,30.81,30.41,3,0,10,0.00
2013-11-22,31,20,11,7,3,-7,69,49,19,30.83,30.72,9,1,16,0.00
2013-11-23,42,29,16,19,10,3,66,47,25,30.77,30.30,5,1,7,0.00
2013-11-24,52,39,30,18,8,-10,44,29,7,30.30,30.02,15,4,20,0.00
2013-11-25,39,33,26,22,19,17,71,57,43,30.37,30.11,12,4,15,0.00
2013-11-26,43,33,25,25,20,15,74,59,44,30.43,30.16,8,1,12,0.00
2013-11-27,51,38,25,24,20,14,80,49,24,30.15,30.05,9,2,19,0.00
2013-11-28,45,34,24,27,21,18,81,61,44,30.17,30.08,6,1,6,0.00
2013-11-29,53,40,34,23,19,16,55,44,26,30.10,30.03,4,1,6,0.00
2013-11-30,45,37,31,27,23,19,72,57,43,30.16,30.07,12,1,18,0.00
2013-12-1,46,40,32,27,25,23,70,54,41,30.09,29.67,13,2,17,0.00
2013-12-2,45,34,19,32,28,16,94,80,49,29.66,29.43,24,3,26,0.00
2013-12-3,18,6,-1,16,3,-4,91,87,84,30.28,29.60,25,11,33,0.00
2013-12-4,-1,-5,-13,-4,-9,-17,84,83,80,30.56,30.27,25,8,27,0.00
2013-12-5,0,-10,-15,-4,-14,-19,84,81,79,30.71,30.55,4,0,5,0.00
2013-12-6,-9,-15,-21,-13,-20,-26,82,79,77,30.88,30.69,4,0,6,0.00
2013-12-7,-10,-17,-23,-14,-21,-28,81,78,76,30.86,30.48,7,0,7,0.00
2013-12-8,4,-1,-15,0,-6,-20,84,80,71,30.48,30.38,20,5,24,0.00
2013-12-9,24,10,-8,15,4,-12,83,77,62,30.45,30.21,18,2,19,0.00
2013-12-10,26,18,4,18,10,0,89,71,51,30.45,30.03,14,5,28,0.00
2013-12-11,26,15,4,22,12,1,90,86,72,30.50,30.41,2,0,3,0.05
2013-12-12,45,31,21,35,24,18,90,76,35,30.41,29.97,3,0,5,0.07
2013-12-13,35,31,28,26,21,16,91,67,45,30.22,29.94,18,5,18,0.00
2013-12-14,43,35,23,22,20,17,79,55,40,30.25,30.07,23,3,27,0.01
2013-12-15,54,48,42,22,15,8,43,26,16,30.07,29.86,17,6,23,0.00
2013-12-16,47,41,33,21,17,12,57,38,25,30.17,29.87,12,4,20,0.00
2013-12-17,58,43,24,22,16,5,80,43,12,30.21,29.74,16,4,20,0.00
2013-12-18,56,41,25,25,20,14,80,46,20,29.73,29.58,10,2,17,0.00
2013-12-19,25,8,0,20,5,-4,92,84,75,30.20,29.64,18,4,24,0.00
2013-12-20,26,15,6,14,7,2,89,71,43,30.19,29.74,4,0,4,0.00
2013-12-21,26,22,16,19,16,8,91,78,59,30.18,29.71,11,2,15,0.00
2013-12-22,17,11,4,13,8,1,90,86,79,30.49,30.09,11,1,15,0.00
2013-12-23,46,26,3,30,19,0,91,76,41,30.49,29.99,11,1,20,0.09
2013-12-24,48,29,21,28,20,12,94,70,31,30.33,29.87,24,7,31,0.00
2013-12-25,46,30,19,21,12,1,70,48,15,30.43,30.14,14,3,23,0.00
2013-12-26,49,42,30,27,22,14,71,45,28,30.23,30.02,14,3,24,0.00
2013-12-27,58,43,35,28,23,8,67,47,16,30.12,29.81,7,1,8,0.00
2013-12-28,54,22,1,25,8,-3,90,66,16,30.41,29.74,19,6,29,0.00
2013-12-29,34,21,6,22,15,3,90,79,54,30.45,30.11,15,2,22,0.00
2013-12-30,41,30,21,26,21,16,89,71,38,30.27,29.97,19,4,23,0.00
2013-12-31,45,38,26,30,23,18,94,58,37,30.00,29.84,17,5,21,0.00
2014-1-1,26,23,18,25,21,15,94,92,86,30.37,29.99,14,3,19,0.00
2014-1-2,43,26,16,33,23,14,95,90,53,30.36,29.93,9,0,14,0.01